Riviera Beach, Texas
Current Conditions -  °F | °C
As of 12:56 PM on Friday 28 Nov 2014 (Local Time) from KNQI Reporting Station
Few Clouds Few Clouds  
Wind Chill: 76°   Ceiling: Unl
Heat Index: 76°   Visibility: 10mi
Dew Point: 53°   Wind: 12mph
Humidity: 45%   Direction: 170°S
Pressure: 30.22"   Gusts: NA
Location:  27.3193°N, 97.8839°W
Report Text: KNQI 281856Z 17010KT 10SM FEW030 FEW045 24/12 A3022 RMK AO2 SLP229 T02440117 $
Loading
Personal Weather Stations






























Interactive Weather Map New forecast layout! Learn more

10-Day Weather Forecast

Advertisements
Track Severe Weather on mobile